Billy Bishop Toronto City Centre Airport
CYTZ : now visible

Airfield :











YOU CAN JOIN US ON...

 
LOGIN :

Register | Disclaimer

   EN    FR    IT 

 









Legend :    VFR   Marginal VFR   IFR   Intensive IFR   Very Intensive IFR
Visi :
Ceiling :
>= 8 km
>= 3000ft
5 to 8 km
1000 to 3000 ft
1500m to 5 km
500 to 1000 ft
800 to 1500m
200 to 500 ft
< 800m
< 200 ft
Symbols :   Thunderstorms  Fog  Heavy snow  Heavy precipitations  Wind > 20 kt






- Airport Elevation : 251 ft
- IATA code : YTZ


CYTZ - Billy Bishop Toronto City Centre

CURRENT METAR :
  • 271521Z AUTO 15009G16KT 110V170 2 1/2SM -RA BR SCT016 SCT021 BKN029 OVC034 17/17 A2948 RMK VIS VRB 1 3/4-3 PCPN 1.0MM PAST HR SLP984 DENSITY ALT 1100FT

EXPIRED METARs :
  • 271500Z AUTO 13007G19KT 090V170 9SM -RA FEW022 BKN033 OVC042 17/17 A2948 RMK PCPN 7.5MM PAST HR SLP984 DENSITY ALT 1100FT
  • 271449Z AUTO 15009G18KT 6SM -RA BR FEW020 SCT028 BKN033 OVC042 18/17 A2948 RMK PCPN 7.5MM PAST HR SLP983 DENSITY ALT 1200FT
  • 271444Z AUTO 14010G18KT 3SM -RA BR FEW024 SCT029 BKN038 OVC045 18/17 A2948 RMK PCPN 7.3MM PAST HR SLP983 DENSITY ALT 1200FT
  • 271433Z AUTO 15011G20KT 100V170 1 3/4SM RA BR FEW006 SCT014 BKN026 OVC045 17/17 A2948 RMK PCPN 6.3MM PAST HR SLP985 DENSITY ALT 1100FT
  • 271421Z AUTO 15012G19KT 2 1/2SM RA BR FEW006 SCT016 BKN026 OVC036 17/17 A2948 RMK PCPN 2.8MM PAST HR SLP985 DENSITY ALT 1100FT
  • 271400Z AUTO 14009G16KT 090V170 4SM -RA BR BKN019 OVC024 17/16 A2949 RMK PCPN 2.5MM PAST HR SLP989 DENSITY ALT 1000FT
  • 271345Z AUTO 14010G16KT 060V170 5SM -RA BR BKN021 OVC026 17/16 A2949 RMK PCPN 1.5MM PAST HR SLP989 DENSITY ALT 1100FT
  • 271332Z AUTO 13009G16KT 090V160 9SM -RA BKN021 BKN026 OVC060 17/16 A2950 RMK PCPN 1.2MM PAST HR SLP991 DENSITY ALT 1100FT
  • 271317Z AUTO 13006KT 060V170 7SM -RA SCT026 SCT036 BKN060 OVC073 17/16 A2950 RMK PCPN 0.8MM PAST HR SLP992 DENSITY ALT 1000FT
  • 271243Z AUTO VRB02KT 9SM -RA OVC026 17/15 A2953 RMK SLP002 DENSITY ALT 1000FT
  • 271240Z AUTO 14003KT 050V180 9SM OVC026 17/15 A2953 RMK SLP003 DENSITY ALT 1000FT
  • 271200Z AUTO VRB02KT 9SM OVC024 16/15 A2953 RMK SLP001 DENSITY ALT 900FT
  • 271100Z AUTO 18009KT 9SM OVC024 17/15 A2954 RMK SLP003 DENSITY ALT 1000FT
  • 271031Z AUTO 19011G17KT 9SM BKN024 OVC029 17/15 A2954 RMK SLP004 DENSITY ALT 1000FT

TAF TAF CYTZ
Valid from the 27 at 14:00 until the 28 at 14:00 UTC


271340Z 2714/2814 18008KT P6SM -SHRA SCT006 BKN025 OVC060
TEMPO 2714/2715 2 1/2SM SHRA BR OVC006
BECMG 2714/2715 18012KT
FM271500 18012KT 6SM -SHRA BR OVC010
TEMPO 2715/2718 2SM SHRA BR OVC006
PROB30 2715/2718 1 1/2SM TSRA BR BKN004 OVC030CB
FM271800 22012KT P6SM SCT008 BKN015
TEMPO 2718/2720 BKN008 OVC015
FM272000 22012G22KT P6SM BKN025
PROB30 2720/2724 VRB15G25KT 2SM TSRA BR BKN020CB
FM280200 26012KT P6SM FEW008 BKN015 OVC060
BECMG 2804/2806 28008KT RMK FCST BASED ON AUTO OBS. NXT FCST BY 272000Z
CZYZ FIR / North America



MET'MAP, your aeronautical weather chart ! - Copyright ORBIFLY December 2007 - Disclaimer

ORBIFLY MET'MAP TEAM :

Programming & Development : Alexandra Zaïnal
Original concept : Baudouin d'Aumeries
Technical & hardware support : Manuel Goepfert
Assistance : Marc-Olivier Méhu




SOURCES & CREDITS :

   NOAA       Earth
Advisory